createdAt,value
2019-03-16T00:00:51.060Z,2.02
2019-03-16T00:03:17.777Z,2.87
2019-03-16T00:05:44.558Z,2.55
2019-03-16T00:08:11.366Z,3.00
2019-03-16T00:10:38.140Z,2.47
2019-03-16T00:13:04.944Z,2.40
2019-03-16T00:15:31.753Z,2.62
2019-03-16T00:17:58.540Z,2.10
2019-03-16T00:20:25.313Z,1.90
2019-03-16T00:22:52.022Z,2.75
2019-03-16T00:25:18.802Z,2.60
2019-03-16T00:27:45.606Z,2.25
2019-03-16T00:30:12.508Z,2.12
2019-03-16T00:32:39.845Z,2.30
2019-03-16T00:35:06.639Z,2.08
2019-03-16T00:37:34.055Z,2.50
2019-03-16T00:40:00.753Z,2.40
2019-03-16T00:42:27.521Z,2.22
2019-03-16T00:44:54.341Z,2.98
2019-03-16T00:47:22.476Z,2.52
2019-03-16T00:49:49.152Z,2.60
2019-03-16T00:52:16.271Z,2.75
2019-03-16T00:54:42.964Z,2.67
2019-03-16T00:57:09.634Z,2.25
2019-03-16T00:59:36.320Z,2.40
2019-03-16T01:02:03.311Z,2.17
2019-03-16T01:04:29.992Z,3.33
2019-03-16T01:06:56.873Z,2.60
2019-03-16T01:09:23.664Z,2.62
2019-03-16T01:11:50.344Z,2.45
2019-03-16T01:14:17.027Z,2.50
2019-03-16T01:16:43.726Z,2.47
2019-03-16T01:19:10.312Z,2.08
2019-03-16T01:21:37.016Z,2.08
2019-03-16T01:24:03.812Z,2.42
2019-03-16T01:26:30.598Z,2.58
2019-03-16T01:28:57.291Z,2.20
2019-03-16T01:31:23.981Z,2.15
2019-03-16T01:33:51.318Z,1.87
2019-03-16T01:36:17.919Z,3.15
2019-03-16T01:38:44.734Z,2.33
2019-03-16T01:41:11.398Z,2.30
2019-03-16T01:43:37.986Z,2.42
2019-03-16T01:46:04.779Z,2.17
2019-03-16T01:48:31.383Z,1.90
2019-03-16T01:50:58.081Z,2.72
2019-03-16T01:53:24.822Z,3.35
2019-03-16T01:55:51.515Z,2.70
2019-03-16T01:58:18.306Z,2.33
2019-03-16T02:00:45.304Z,2.30
2019-03-16T02:03:12.316Z,2.15
2019-03-16T02:05:39.106Z,2.62
2019-03-16T02:08:05.906Z,2.60
2019-03-16T02:10:32.493Z,2.52
2019-03-16T02:12:59.194Z,2.05
2019-03-16T02:15:25.888Z,2.50
2019-03-16T02:17:52.595Z,2.40
2019-03-16T02:20:19.279Z,2.15
2019-03-16T02:22:46.067Z,1.95
2019-03-16T02:25:13.194Z,2.12
2019-03-16T02:27:40.011Z,2.40
2019-03-16T02:30:07.503Z,2.72
2019-03-16T02:32:34.599Z,1.90
2019-03-16T02:35:01.309Z,1.50
2019-03-16T02:37:27.997Z,2.45
2019-03-16T02:39:54.629Z,1.85
2019-03-16T02:42:21.301Z,2.40
2019-03-16T02:44:47.890Z,1.60
2019-03-16T02:47:14.578Z,3.02
2019-03-16T02:49:41.273Z,2.10
2019-03-16T02:52:08.353Z,1.95
2019-03-16T02:54:35.167Z,2.47
2019-03-16T02:57:01.945Z,2.05
2019-03-16T02:59:28.930Z,2.12
2019-03-16T03:01:55.611Z,2.27
2019-03-16T03:04:22.653Z,1.70
2019-03-16T03:06:49.797Z,2.58
2019-03-16T03:09:16.611Z,1.90
2019-03-16T03:11:43.385Z,2.37
2019-03-16T03:14:10.188Z,2.33
2019-03-16T03:16:36.957Z,2.40
2019-03-16T03:19:03.778Z,1.57
2019-03-16T03:21:30.858Z,2.70
2019-03-16T03:23:57.449Z,2.15
2019-03-16T03:26:24.409Z,2.35
2019-03-16T03:28:51.005Z,2.22
2019-03-16T03:31:17.679Z,2.15
2019-03-16T03:33:58.633Z,1.90
2019-03-16T03:36:12.753Z,2.85
2019-03-16T03:38:39.471Z,2.35
2019-03-16T03:41:06.355Z,2.33
2019-03-16T03:43:33.155Z,2.37
2019-03-16T03:45:59.888Z,2.20
2019-03-16T03:48:26.699Z,2.42
2019-03-16T03:50:53.484Z,2.67
2019-03-16T03:53:20.187Z,2.65
2019-03-16T03:55:46.959Z,3.35
2019-03-16T03:58:13.770Z,2.83
2019-03-16T04:00:40.652Z,2.12
2019-03-16T04:03:07.762Z,2.42
2019-03-16T04:05:34.460Z,2.30
2019-03-16T04:08:01.257Z,3.25
2019-03-16T04:10:27.935Z,2.80
2019-03-16T04:12:54.652Z,2.65
2019-03-16T04:15:21.434Z,2.52
2019-03-16T04:17:48.244Z,2.72
2019-03-16T04:20:15.441Z,2.33
2019-03-16T04:22:42.103Z,2.90
2019-03-16T04:25:08.929Z,2.70
2019-03-16T04:27:35.732Z,2.33
2019-03-16T04:30:02.775Z,3.30
2019-03-16T04:32:30.056Z,2.55
2019-03-16T04:34:56.767Z,2.85
2019-03-16T04:37:23.349Z,2.75
2019-03-16T04:39:49.957Z,2.33
2019-03-16T04:42:16.749Z,2.95
2019-03-16T04:44:43.439Z,2.55
2019-03-16T04:47:10.147Z,3.62
2019-03-16T04:49:36.780Z,2.80
2019-03-16T04:52:03.555Z,3.10
2019-03-16T04:54:30.364Z,2.55
2019-03-16T04:56:57.303Z,3.55
2019-03-16T04:59:23.924Z,2.47
2019-03-16T05:01:50.678Z,3.45
2019-03-16T05:04:17.239Z,2.20
2019-03-16T05:06:44.029Z,2.75
2019-03-16T05:09:10.634Z,3.17
2019-03-16T05:11:37.417Z,3.27
2019-03-16T05:14:04.231Z,2.52
2019-03-16T05:16:31.332Z,3.10
2019-03-16T05:18:57.939Z,2.40
2019-03-16T05:21:24.532Z,2.50
2019-03-16T05:23:51.371Z,1.77
2019-03-16T05:26:18.106Z,1.82
2019-03-16T05:28:44.892Z,2.15
2019-03-16T05:31:11.598Z,2.17
2019-03-16T05:33:38.381Z,1.98
2019-03-16T05:36:05.100Z,2.10
2019-03-16T05:38:32.095Z,2.27
2019-03-16T05:40:58.795Z,1.65
2019-03-16T05:43:25.387Z,2.58
2019-03-16T05:45:51.998Z,1.75
2019-03-16T05:48:18.981Z,1.95
2019-03-16T05:50:45.788Z,2.25
2019-03-16T05:53:12.478Z,2.22
2019-03-16T05:55:39.209Z,1.42
2019-03-16T05:58:06.013Z,1.60
2019-03-16T06:00:32.811Z,2.85
2019-03-16T06:02:59.465Z,1.98
2019-03-16T06:05:26.205Z,2.10
2019-03-16T06:07:52.791Z,1.52
2019-03-16T06:10:19.610Z,1.70
2019-03-16T06:12:46.768Z,2.60
2019-03-16T06:15:14.057Z,2.25
2019-03-16T06:17:40.949Z,2.10
2019-03-16T06:20:08.529Z,3.27
2019-03-16T06:22:35.203Z,2.17
2019-03-16T06:25:01.873Z,1.90
2019-03-16T06:27:28.918Z,4.20
2019-03-16T06:29:56.088Z,3.22
2019-03-16T06:32:22.769Z,2.83
2019-03-16T06:34:49.373Z,2.90
2019-03-16T06:37:15.972Z,3.17
2019-03-16T06:39:42.737Z,3.05
2019-03-16T06:42:09.591Z,2.50
2019-03-16T06:44:36.451Z,2.72
2019-03-16T06:47:03.249Z,3.33
2019-03-16T06:49:30.068Z,3.67
2019-03-16T06:51:56.899Z,3.50
2019-03-16T06:54:23.623Z,3.37
2019-03-16T06:56:50.494Z,2.92
2019-03-16T06:59:17.972Z,2.87
2019-03-16T07:01:44.593Z,2.62
2019-03-16T07:04:11.785Z,2.90
2019-03-16T07:06:38.487Z,3.75
2019-03-16T07:09:06.987Z,3.10
2019-03-16T07:11:33.742Z,3.25
2019-03-16T07:14:00.428Z,3.10
2019-03-16T07:16:27.240Z,3.00
2019-03-16T07:18:58.682Z,4.10
2019-03-16T07:21:22.756Z,3.20
2019-03-16T07:23:49.435Z,3.77
2019-03-16T07:26:16.368Z,3.95
2019-03-16T07:28:43.192Z,3.83
2019-03-16T07:31:09.810Z,4.15
2019-03-16T07:33:36.641Z,3.95
2019-03-16T07:36:03.887Z,3.77
2019-03-16T07:38:30.674Z,4.37
2019-03-16T07:40:57.608Z,6.08
2019-03-16T07:43:24.396Z,4.65
2019-03-16T07:45:51.113Z,4.05
2019-03-16T07:48:17.717Z,3.72
2019-03-16T07:50:44.443Z,4.22
2019-03-16T07:53:11.150Z,3.58
2019-03-16T07:55:37.876Z,3.20
2019-03-16T07:58:04.491Z,3.92
2019-03-16T08:00:31.277Z,3.80
2019-03-16T08:02:57.971Z,3.90
2019-03-16T08:05:24.631Z,3.72
2019-03-16T08:07:51.457Z,4.70
2019-03-16T08:10:18.135Z,4.87
2019-03-16T08:12:44.865Z,5.15
2019-03-16T08:15:11.663Z,4.87
2019-03-16T08:17:38.569Z,5.30
2019-03-16T08:20:05.395Z,4.22
2019-03-16T08:22:32.001Z,5.70
2019-03-16T08:24:58.682Z,4.03
2019-03-16T08:27:25.382Z,5.12
2019-03-16T08:29:52.159Z,3.70
2019-03-16T08:32:18.972Z,4.47
2019-03-16T08:34:45.668Z,4.33
2019-03-16T08:37:12.273Z,4.53
2019-03-16T08:39:38.954Z,5.08
2019-03-16T08:42:05.762Z,4.55
2019-03-16T08:44:32.475Z,4.78
2019-03-16T08:46:59.539Z,3.75
2019-03-16T08:49:26.217Z,4.25
2019-03-16T08:51:52.920Z,4.30
2019-03-16T08:54:19.553Z,4.87
2019-03-16T08:56:46.234Z,4.85
2019-03-16T08:59:12.833Z,3.98
2019-03-16T09:01:40.863Z,4.67
2019-03-16T09:04:07.538Z,4.03
2019-03-16T09:06:34.172Z,5.42
2019-03-16T09:09:00.770Z,3.58
2019-03-16T09:11:27.489Z,5.05
2019-03-16T09:13:54.079Z,4.87
2019-03-16T09:16:20.756Z,5.83
2019-03-16T09:18:47.562Z,4.60
2019-03-16T09:21:14.365Z,5.15
2019-03-16T09:23:41.556Z,6.05
2019-03-16T09:26:08.743Z,5.92
2019-03-16T09:28:35.361Z,6.85
2019-03-16T09:31:02.778Z,6.25
2019-03-16T09:33:29.796Z,7.12
2019-03-16T09:35:56.482Z,8.10
2019-03-16T09:38:23.292Z,7.90
2019-03-16T09:40:50.069Z,7.20
2019-03-16T09:43:16.797Z,7.95
2019-03-16T09:45:43.501Z,8.70
2019-03-16T09:48:10.198Z,9.15
2019-03-16T09:50:37.016Z,7.75
2019-03-16T09:53:03.804Z,9.20
2019-03-16T09:55:30.608Z,8.03
2019-03-16T09:57:57.413Z,7.70
2019-03-16T10:00:24.204Z,8.80
2019-03-16T10:02:50.904Z,8.13
2019-03-16T10:05:17.670Z,8.63
2019-03-16T10:07:44.401Z,7.90
2019-03-16T10:10:11.237Z,6.78
2019-03-16T10:12:38.026Z,7.47
2019-03-16T10:15:05.306Z,7.75
2019-03-16T10:17:32.682Z,6.42
2019-03-16T10:19:59.460Z,6.37
2019-03-16T10:22:26.184Z,6.25
2019-03-16T10:24:52.992Z,7.33
2019-03-16T10:27:19.590Z,6.37
2019-03-16T10:29:46.180Z,8.45
2019-03-16T10:32:13.240Z,8.20
2019-03-16T10:34:40.097Z,13.58
2019-03-16T10:37:06.880Z,26.12
2019-03-16T10:39:33.883Z,16.48
2019-03-16T10:42:00.568Z,13.32
2019-03-16T10:44:27.282Z,9.63
2019-03-16T10:46:53.849Z,14.80
2019-03-16T10:49:20.441Z,14.47
2019-03-16T10:51:47.208Z,13.15
2019-03-16T10:54:13.828Z,10.38
2019-03-16T10:56:40.509Z,10.13
2019-03-16T10:59:07.110Z,9.33
2019-03-16T11:01:33.788Z,9.15
2019-03-16T11:04:00.358Z,8.35
2019-03-16T11:06:27.614Z,8.23
2019-03-16T11:08:54.214Z,6.78
2019-03-16T11:11:21.003Z,7.25
2019-03-16T11:13:47.796Z,7.55
2019-03-16T11:16:14.555Z,7.17
2019-03-16T11:18:41.339Z,7.25
2019-03-16T11:21:07.951Z,8.23
2019-03-16T11:23:34.523Z,6.40
2019-03-16T11:26:01.202Z,6.55
2019-03-16T11:28:28.354Z,7.00
2019-03-16T11:30:55.143Z,6.42
2019-03-16T11:33:22.652Z,6.97
2019-03-16T11:35:49.777Z,10.18
2019-03-16T11:38:16.623Z,5.72
2019-03-16T11:40:46.492Z,5.55
2019-03-16T11:43:13.198Z,8.05
2019-03-16T11:45:40.340Z,7.33
2019-03-16T11:48:07.071Z,5.30
2019-03-16T11:50:34.068Z,6.15
2019-03-16T11:53:00.670Z,4.35
2019-03-16T11:55:27.366Z,4.75
2019-03-16T11:57:54.439Z,4.15
2019-03-16T12:00:21.239Z,4.40
2019-03-16T12:02:52.951Z,2.87
2019-03-16T12:05:22.922Z,3.22
2019-03-16T12:07:49.722Z,3.27
2019-03-16T12:10:16.582Z,5.75
2019-03-16T12:12:43.363Z,4.08
2019-03-16T12:15:10.186Z,3.83
2019-03-16T12:17:36.948Z,3.50
2019-03-16T12:20:05.390Z,3.70
2019-03-16T12:22:32.189Z,3.77
2019-03-16T12:25:00.390Z,3.87
2019-03-16T12:27:27.410Z,4.25
2019-03-16T12:29:55.766Z,3.55
2019-03-16T12:32:22.888Z,3.67
2019-03-16T12:34:49.701Z,4.12
2019-03-16T12:37:16.381Z,5.10
2019-03-16T12:39:44.849Z,5.50
2019-03-16T12:42:11.551Z,4.47
2019-03-16T12:44:38.356Z,5.37
2019-03-16T12:47:07.243Z,4.70
2019-03-16T12:49:33.951Z,5.20
2019-03-16T12:52:00.644Z,4.70
2019-03-16T12:54:27.647Z,4.22
2019-03-16T12:56:54.331Z,4.83
2019-03-16T12:59:21.009Z,4.28
2019-03-16T13:01:47.688Z,3.58
2019-03-16T13:04:14.271Z,3.80
2019-03-16T13:06:41.055Z,4.62
2019-03-16T13:09:07.849Z,3.80
2019-03-16T13:11:34.542Z,4.62
2019-03-16T13:14:01.253Z,3.15
2019-03-16T13:16:27.928Z,2.58
2019-03-16T13:18:54.603Z,2.58
2019-03-16T13:21:21.190Z,2.62
2019-03-16T13:23:47.771Z,2.10
2019-03-16T13:26:14.439Z,2.08
2019-03-16T13:28:41.023Z,3.17
2019-03-16T13:31:07.827Z,2.60
2019-03-16T13:33:34.412Z,2.85
2019-03-16T13:36:01.105Z,3.27
2019-03-16T13:38:27.783Z,1.75
2019-03-16T13:40:54.586Z,2.92
2019-03-16T13:43:21.402Z,3.22
2019-03-16T13:45:48.255Z,2.17
2019-03-16T13:48:15.037Z,2.37
2019-03-16T13:50:41.744Z,2.62
2019-03-16T13:53:08.874Z,2.77
2019-03-16T13:55:35.597Z,3.77
2019-03-16T13:58:02.377Z,2.72
2019-03-16T14:00:29.178Z,3.17
2019-03-16T14:02:56.246Z,4.00
2019-03-16T14:05:23.046Z,3.00
2019-03-16T14:07:49.722Z,2.52
2019-03-16T14:10:16.717Z,2.92
2019-03-16T14:12:43.404Z,2.55
2019-03-16T14:15:10.182Z,2.87
2019-03-16T14:17:37.208Z,3.12
2019-03-16T14:20:05.251Z,2.92
2019-03-16T14:22:31.820Z,3.12
2019-03-16T14:24:58.520Z,2.60
2019-03-16T14:27:25.095Z,2.85
2019-03-16T14:29:51.795Z,3.10
2019-03-16T14:32:18.824Z,2.20
2019-03-16T14:34:46.206Z,2.08
2019-03-16T14:37:12.990Z,1.75
2019-03-16T14:39:39.792Z,2.15
2019-03-16T14:42:07.754Z,2.20
2019-03-16T14:44:34.386Z,2.30
2019-03-16T14:47:00.973Z,1.90
2019-03-16T14:49:27.638Z,2.00
2019-03-16T14:51:54.434Z,2.20
2019-03-16T14:54:21.039Z,2.55
2019-03-16T14:56:47.636Z,2.42
2019-03-16T14:59:14.332Z,2.45
2019-03-16T15:01:40.948Z,2.40
2019-03-16T15:04:07.616Z,3.00
2019-03-16T15:06:34.319Z,2.05
2019-03-16T15:09:01.382Z,1.72
2019-03-16T15:11:28.088Z,3.08
2019-03-16T15:13:54.667Z,1.70
2019-03-16T15:16:21.815Z,2.30
2019-03-16T15:18:48.512Z,2.25
2019-03-16T15:21:15.273Z,2.20
2019-03-16T15:23:41.974Z,2.35
2019-03-16T15:26:08.792Z,2.17
2019-03-16T15:28:35.577Z,2.37
2019-03-16T15:31:02.364Z,2.15
2019-03-16T15:33:29.146Z,2.20
2019-03-16T15:35:55.742Z,2.62
2019-03-16T15:38:22.422Z,2.15
2019-03-16T15:40:49.118Z,2.00
2019-03-16T15:43:15.887Z,1.95
2019-03-16T15:45:42.585Z,2.00
2019-03-16T15:48:09.254Z,2.00
2019-03-16T15:50:36.397Z,3.00
2019-03-16T15:53:03.551Z,2.70
2019-03-16T15:55:30.263Z,2.35
2019-03-16T15:58:07.539Z,2.47
2019-03-16T16:00:26.470Z,2.42
2019-03-16T16:02:53.240Z,1.90
2019-03-16T16:05:20.064Z,2.70
2019-03-16T16:07:46.731Z,3.60
2019-03-16T16:10:13.545Z,2.30
2019-03-16T16:12:40.232Z,2.40
2019-03-16T16:15:07.037Z,2.00
2019-03-16T16:17:33.953Z,2.15
2019-03-16T16:20:00.541Z,2.77
2019-03-16T16:22:27.239Z,2.30
2019-03-16T16:24:53.947Z,2.17
2019-03-16T16:27:22.919Z,2.58
2019-03-16T16:29:51.089Z,2.60
2019-03-16T16:32:18.278Z,2.35
2019-03-16T16:34:45.088Z,2.90
2019-03-16T16:37:11.747Z,3.15
2019-03-16T16:39:38.570Z,3.27
2019-03-16T16:42:05.361Z,3.27
2019-03-16T16:44:33.259Z,2.85
2019-03-16T16:47:00.020Z,2.50
2019-03-16T16:49:26.597Z,2.65
2019-03-16T16:51:53.391Z,3.05
2019-03-16T16:54:19.988Z,3.37
2019-03-16T16:56:47.184Z,3.37
2019-03-16T16:59:13.755Z,3.30
2019-03-16T17:01:40.552Z,3.52
2019-03-16T17:04:07.231Z,2.95
2019-03-16T17:06:33.917Z,3.12
2019-03-16T17:09:00.586Z,2.55
2019-03-16T17:11:27.280Z,3.27
2019-03-16T17:13:53.950Z,3.27
2019-03-16T17:16:20.846Z,2.40
2019-03-16T17:18:47.527Z,2.70
2019-03-16T17:21:14.103Z,2.83
2019-03-16T17:23:40.798Z,2.62
2019-03-16T17:26:07.472Z,3.35
2019-03-16T17:28:34.261Z,2.83
2019-03-16T17:31:03.230Z,2.72
2019-03-16T17:33:29.930Z,2.92
2019-03-16T17:35:56.507Z,3.47
2019-03-16T17:38:23.456Z,3.30
2019-03-16T17:40:50.134Z,3.10
2019-03-16T17:43:16.969Z,2.75
2019-03-16T17:45:43.777Z,2.52
2019-03-16T17:48:10.467Z,2.75
2019-03-16T17:50:37.504Z,2.30
2019-03-16T17:53:04.304Z,2.85
2019-03-16T17:55:31.014Z,2.20
2019-03-16T17:57:57.693Z,1.85
2019-03-16T18:00:24.472Z,1.90
2019-03-16T18:02:52.493Z,2.40
2019-03-16T18:05:19.748Z,2.00
2019-03-16T18:07:46.430Z,2.15
2019-03-16T18:10:13.213Z,2.00
2019-03-16T18:12:40.090Z,2.22
2019-03-16T18:15:08.213Z,2.12
2019-03-16T18:17:34.916Z,1.80
2019-03-16T18:20:01.684Z,1.98
2019-03-16T18:22:29.049Z,2.00
2019-03-16T18:24:55.613Z,2.17
2019-03-16T18:27:22.402Z,2.55
2019-03-16T18:29:48.962Z,2.25
2019-03-16T18:32:15.655Z,2.92
2019-03-16T18:34:42.333Z,2.90
2019-03-16T18:37:09.107Z,3.10
2019-03-16T18:39:35.695Z,2.67
2019-03-16T18:42:02.399Z,2.83
2019-03-16T18:44:29.079Z,3.10
2019-03-16T18:46:55.746Z,2.77
2019-03-16T18:49:22.465Z,2.37
2019-03-16T18:51:49.148Z,2.65
2019-03-16T18:54:15.871Z,2.37
2019-03-16T18:56:42.675Z,2.83
2019-03-16T18:59:09.438Z,2.37
2019-03-16T19:01:36.057Z,2.20
2019-03-16T19:04:03.011Z,3.33
2019-03-16T19:06:29.681Z,2.45
2019-03-16T19:08:56.285Z,2.50
2019-03-16T19:11:23.624Z,2.10
2019-03-16T19:13:50.332Z,3.02
2019-03-16T19:16:17.112Z,2.40
2019-03-16T19:18:43.719Z,2.25
2019-03-16T19:21:10.301Z,2.25
2019-03-16T19:23:36.993Z,2.27
2019-03-16T19:26:03.779Z,2.90
2019-03-16T19:28:30.501Z,2.20
2019-03-16T19:30:57.187Z,1.62
2019-03-16T19:33:23.897Z,1.77
2019-03-16T19:35:50.577Z,1.92
2019-03-16T19:38:17.380Z,2.15
2019-03-16T19:40:44.082Z,2.80
2019-03-16T19:43:10.784Z,2.25
2019-03-16T19:45:37.481Z,2.45
2019-03-16T19:48:04.274Z,3.00
2019-03-16T19:50:30.953Z,2.52
2019-03-16T19:52:57.622Z,2.58
2019-03-16T19:55:24.441Z,2.55
2019-03-16T19:57:51.114Z,2.30
2019-03-16T20:00:18.244Z,2.83
2019-03-16T20:02:51.077Z,2.72
2019-03-16T20:05:16.474Z,3.10
2019-03-16T20:07:43.680Z,2.80
2019-03-16T20:10:11.594Z,2.10
2019-03-16T20:12:38.755Z,2.55
2019-03-16T20:15:05.512Z,2.25
2019-03-16T20:17:32.327Z,2.52
2019-03-16T20:19:59.130Z,3.27
2019-03-16T20:22:25.938Z,2.50
2019-03-16T20:24:52.636Z,3.30
2019-03-16T20:27:19.327Z,2.50
2019-03-16T20:29:46.054Z,2.92
2019-03-16T20:32:12.649Z,3.22
2019-03-16T20:34:39.367Z,3.25
2019-03-16T20:37:06.145Z,2.42
2019-03-16T20:39:32.831Z,3.35
2019-03-16T20:41:59.609Z,3.52
2019-03-16T20:44:26.404Z,3.45
2019-03-16T20:46:52.962Z,3.92
2019-03-16T20:49:20.074Z,3.35
2019-03-16T20:51:46.782Z,3.52
2019-03-16T20:54:13.604Z,3.55
2019-03-16T20:56:40.684Z,4.05
2019-03-16T20:59:07.480Z,3.50
2019-03-16T21:01:34.113Z,3.47
2019-03-16T21:04:00.964Z,4.17
2019-03-16T21:06:27.766Z,2.98
2019-03-16T21:09:03.115Z,3.55
2019-03-16T21:11:23.133Z,4.17
2019-03-16T21:13:49.707Z,5.70
2019-03-16T21:16:16.415Z,3.55
2019-03-16T21:18:43.094Z,5.35
2019-03-16T21:21:10.150Z,4.53
2019-03-16T21:23:36.946Z,4.10
2019-03-16T21:26:03.867Z,4.20
2019-03-16T21:28:30.536Z,4.22
2019-03-16T21:30:57.227Z,5.22
2019-03-16T21:33:29.632Z,3.83
2019-03-16T21:35:52.608Z,4.47
2019-03-16T21:38:19.561Z,4.08
2019-03-16T21:40:46.664Z,4.00
2019-03-16T21:43:13.455Z,4.30
2019-03-16T21:45:40.136Z,4.85
2019-03-16T21:48:06.924Z,3.98
2019-03-16T21:50:33.730Z,4.85
2019-03-16T21:53:00.506Z,3.67
2019-03-16T21:55:27.117Z,4.92
2019-03-16T21:57:53.699Z,3.47
2019-03-16T22:00:20.782Z,3.40
2019-03-16T22:02:47.359Z,4.80
2019-03-16T22:05:14.174Z,4.65
2019-03-16T22:07:40.970Z,3.22
2019-03-16T22:10:07.907Z,3.33
2019-03-16T22:12:34.695Z,3.47
2019-03-16T22:15:01.502Z,3.55
2019-03-16T22:17:28.311Z,3.35
2019-03-16T22:19:55.094Z,3.02
2019-03-16T22:22:21.804Z,3.30
2019-03-16T22:24:48.508Z,3.20
2019-03-16T22:27:15.190Z,3.15
2019-03-16T22:29:42.172Z,3.33
2019-03-16T22:32:09.260Z,3.77
2019-03-16T22:34:36.038Z,3.20
2019-03-16T22:37:02.740Z,3.87
2019-03-16T22:39:29.785Z,3.15
2019-03-16T22:41:56.472Z,3.27
2019-03-16T22:44:23.449Z,3.52
2019-03-16T22:46:50.250Z,3.60
2019-03-16T22:49:16.920Z,3.35
2019-03-16T22:51:43.703Z,3.20
2019-03-16T22:54:10.517Z,3.12
2019-03-16T22:56:37.211Z,2.50
2019-03-16T22:59:04.001Z,3.08
2019-03-16T23:01:30.788Z,3.15
2019-03-16T23:04:06.301Z,3.15
2019-03-16T23:06:26.071Z,3.10
2019-03-16T23:08:52.901Z,3.30
2019-03-16T23:11:20.632Z,2.77
2019-03-16T23:13:47.395Z,2.70
2019-03-16T23:16:14.115Z,2.98
2019-03-16T23:18:40.899Z,2.92
2019-03-16T23:21:07.701Z,3.30
2019-03-16T23:23:34.471Z,3.20
2019-03-16T23:26:01.391Z,2.50
2019-03-16T23:28:28.095Z,3.08
2019-03-16T23:30:54.801Z,3.50
2019-03-16T23:33:21.589Z,3.00
2019-03-16T23:35:48.417Z,2.60
2019-03-16T23:38:15.089Z,2.72
2019-03-16T23:40:42.173Z,2.60
2019-03-16T23:43:08.959Z,3.12
2019-03-16T23:45:35.734Z,2.52
2019-03-16T23:48:02.540Z,3.33
2019-03-16T23:50:29.225Z,2.98
2019-03-16T23:52:55.921Z,2.80
2019-03-16T23:55:22.715Z,3.02
2019-03-16T23:57:49.550Z,3.05
